Time;durP1;ratioP1;P1;durP2;ratioP2;P2;SDS_P1;SDS_P2;PMS_P1;PMS_P2;Temp;Humidity;BMP_temperature;BMP_pressure;BME280_temperature;BME280_humidity;BME280_pressure;Samples;Min_cycle;Max_cycle;Signal;HPM_P1;HPM_P2
2023/05/11 00:01:02;;;;;;;12.07;6.43;;;;;;;9.16;100.00;101029.28;5070326;28;20072;-73
2023/05/11 00:03:28;;;;;;;10.35;6.80;;;;;;;9.08;100.00;101010.72;5055022;28;20037;-73
2023/05/11 00:05:53;;;;;;;14.00;7.05;;;;;;;8.85;100.00;100951.69;5055375;28;20043;-73
2023/05/11 00:08:19;;;;;;;12.50;6.90;;;;;;;8.79;100.00;100954.25;5069849;28;20132;-73
2023/05/11 00:10:47;;;;;;;8.82;6.18;;;;;;;9.01;100.00;100973.56;5054685;28;20033;-73
2023/05/11 00:13:13;;;;;;;10.38;6.68;;;;;;;9.23;100.00;100987.81;5070289;28;20033;-74
2023/05/11 00:15:38;;;;;;;11.35;7.15;;;;;;;8.73;100.00;100923.00;5053433;28;20090;-73
2023/05/11 00:18:03;;;;;;;8.57;6.50;;;;;;;9.15;100.00;100909.19;5052893;28;20496;-74
2023/05/11 00:20:29;;;;;;;9.27;6.97;;;;;;;9.01;100.00;100895.81;5053435;28;20045;-73
2023/05/11 00:22:54;;;;;;;9.23;7.07;;;;;;;9.08;100.00;100891.50;5054688;28;20025;-73
2023/05/11 00:25:20;;;;;;;10.07;7.38;;;;;;;8.62;100.00;100825.91;5054293;28;20056;-73
2023/05/11 00:27:45;;;;;;;10.95;7.10;;;;;;;9.05;100.00;100887.28;5053832;28;20041;-73
2023/05/11 00:30:13;;;;;;;10.52;7.32;;;;;;;8.60;100.00;100852.94;5053340;28;20025;-73
2023/05/11 00:32:39;;;;;;;11.68;6.55;;;;;;;9.03;100.00;100944.78;5053327;28;20025;-73
2023/05/11 00:35:05;;;;;;;11.65;7.35;;;;;;;8.65;100.00;100879.13;5053156;28;20039;-72
2023/05/11 00:37:30;;;;;;;10.25;7.18;;;;;;;8.94;100.00;100944.00;5054371;28;20033;-73
2023/05/11 00:39:56;;;;;;;13.13;8.35;;;;;;;8.57;100.00;100873.25;5054615;28;20044;-73
2023/05/11 00:42:21;;;;;;;11.80;8.45;;;;;;;8.51;100.00;100926.50;5054501;28;20070;-73
2023/05/11 00:44:46;;;;;;;10.27;7.88;;;;;;;8.78;100.00;100938.19;5052796;28;20033;-73
2023/05/11 00:47:12;;;;;;;9.38;7.60;;;;;;;9.17;100.00;100957.41;5052992;28;20483;-73
2023/05/11 00:49:38;;;;;;;12.00;7.60;;;;;;;8.64;100.00;100930.66;5054336;28;20036;-72
2023/05/11 00:52:04;;;;;;;9.82;7.88;;;;;;;8.60;100.00;100905.31;5054332;28;20063;-73
2023/05/11 00:54:30;;;;;;;10.82;7.68;;;;;;;8.58;100.00;100917.16;5054039;28;20490;-73
2023/05/11 00:56:56;;;;;;;11.43;7.50;;;;;;;8.65;100.00;100909.53;5054564;28;20037;-72
2023/05/11 00:59:22;;;;;;;11.57;7.72;;;;;;;8.63;100.00;100892.66;5069437;28;20120;-73
2023/05/11 01:01:47;;;;;;;9.85;8.05;;;;;;;9.02;100.00;100973.56;5054067;28;20036;-71
2023/05/11 01:04:13;;;;;;;9.93;7.88;;;;;;;8.52;100.00;100915.50;5053828;28;20488;-72
2023/05/11 01:07:03;;;;;;;11.68;8.25;;;;;;;8.84;100.00;100975.34;5069134;28;20056;-72
2023/05/11 01:09:43;;;;;;;12.32;8.23;;;;;;;8.66;100.00;100987.25;5053872;28;20033;-72
2023/05/11 01:12:46;;;;;;;14.73;8.23;;;;;;;8.77;100.00;100988.91;5068570;28;20094;-73
2023/05/11 01:15:25;;;;;;;9.52;7.88;;;;;;;8.65;100.00;100985.59;5053944;28;20029;-73
2023/05/11 01:18:06;;;;;;;9.35;7.53;;;;;;;8.71;100.00;100985.53;5053985;28;20047;-72
2023/05/11 01:20:31;;;;;;;11.00;8.30;;;;;;;8.83;100.00;100999.03;5069274;28;20118;-72
2023/05/11 01:23:25;;;;;;;13.80;7.97;;;;;;;8.71;100.00;100995.66;5053536;28;20120;-73
2023/05/11 01:25:51;;;;;;;11.38;8.23;;;;;;;8.62;100.00;101003.31;5068594;28;20049;-72
2023/05/11 01:28:55;;;;;;;11.57;8.02;;;;;;;8.72;100.00;101007.50;5053824;28;20459;-72
2023/05/11 01:31:20;;;;;;;12.32;8.25;;;;;;;8.46;100.00;100993.22;4995298;28;20061;-73
2023/05/11 01:33:56;;;;;;;11.32;8.60;;;;;;;8.72;100.00;100989.75;5056393;28;20083;-73
2023/05/11 01:36:27;;;;;;;12.32;9.18;;;;;;;8.47;100.00;100962.84;5067368;28;20124;-72
2023/05/11 01:38:57;;;;;;;12.60;8.83;;;;;;;8.57;100.00;101017.72;5053741;28;20033;-73
2023/05/11 01:41:25;;;;;;;10.82;8.48;;;;;;;8.89;100.00;101021.81;5053692;28;20267;-72
2023/05/11 01:43:57;;;;;;;12.18;8.30;;;;;;;8.55;100.00;100966.19;5053200;28;20029;-72
2023/05/11 01:46:25;;;;;;;13.52;8.80;;;;;;;8.56;100.00;100982.22;5053255;28;20075;-72
2023/05/11 01:48:53;;;;;;;9.10;7.97;;;;;;;8.82;100.00;101022.66;5052957;28;20067;-72
2023/05/11 01:51:19;;;;;;;12.13;9.05;;;;;;;8.80;100.00;101021.84;5052502;28;20021;-72
2023/05/11 01:53:46;;;;;;;14.57;8.60;;;;;;;8.89;100.00;100999.00;5052895;28;20567;-72
2023/05/11 01:56:13;;;;;;;14.13;8.77;;;;;;;8.67;100.00;100966.16;5068661;28;20033;-73
2023/05/11 01:58:41;;;;;;;10.80;8.27;;;;;;;9.29;100.00;101044.44;5068456;28;20037;-72
2023/05/11 02:01:07;;;;;;;13.65;8.00;;;;;;;9.17;100.00;101030.97;5051807;28;20040;-73
2023/05/11 02:03:35;;;;;;;12.57;8.48;;;;;;;8.50;100.00;100978.03;5053494;28;20624;-73
2023/05/11 02:06:04;;;;;;;12.82;9.00;;;;;;;8.56;100.00;100967.00;5052712;28;20055;-72
2023/05/11 02:08:32;;;;;;;12.90;8.93;;;;;;;8.88;100.00;100999.81;5068124;28;20025;-73
2023/05/11 02:10:59;;;;;;;12.88;9.75;;;;;;;8.87;100.00;101026.06;5053131;28;20025;-73
2023/05/11 02:13:27;;;;;;;14.23;9.90;;;;;;;8.85;100.00;101038.75;5052881;28;20028;-74
2023/05/11 02:15:55;;;;;;;13.50;8.50;;;;;;;8.73;100.00;100996.50;5051561;28;20036;-73
2023/05/11 02:18:21;;;;;;;13.73;8.43;;;;;;;8.87;100.00;101039.56;5067697;28;20072;-73
2023/05/11 02:20:47;;;;;;;14.30;8.82;;;;;;;9.08;100.00;101044.53;5051341;28;20120;-74
2023/05/11 02:23:13;;;;;;;11.45;7.53;;;;;;;8.58;100.00;100971.22;5050456;28;20171;-73
2023/05/11 02:25:39;;;;;;;9.88;6.97;;;;;;;8.98;100.00;101040.38;5053397;28;20044;-73
2023/05/11 02:28:05;;;;;;;9.80;7.07;;;;;;;9.05;100.00;101048.81;5067942;28;20032;-73
2023/05/11 02:30:38;;;;;;;12.60;7.65;;;;;;;8.96;100.00;101038.69;5052480;28;20029;-73
2023/05/11 02:33:07;;;;;;;8.60;7.20;;;;;;;9.04;100.00;101039.50;5050966;28;20055;-73
2023/05/11 02:35:39;;;;;;;13.35;8.13;;;;;;;9.10;100.00;101053.00;5067671;28;20545;-73
2023/05/11 02:38:07;;;;;;;11.20;7.80;;;;;;;8.67;100.00;100983.03;5067723;28;20487;-73
2023/05/11 02:40:39;;;;;;;12.38;8.77;;;;;;;8.52;100.00;100978.00;5067903;28;20397;-73
2023/05/11 02:43:11;;;;;;;11.68;7.95;;;;;;;9.10;100.00;101045.38;5052448;28;20039;-73
2023/05/11 02:45:41;;;;;;;11.48;8.68;;;;;;;9.06;100.00;101051.31;5051101;28;20106;-73
2023/05/11 02:48:10;;;;;;;13.60;8.93;;;;;;;9.05;100.00;101048.81;5067315;28;20036;-73
2023/05/11 02:50:38;;;;;;;15.27;8.68;;;;;;;8.92;100.00;101047.13;5051715;28;20103;-73
2023/05/11 02:53:09;;;;;;;13.43;8.52;;;;;;;8.49;100.00;101003.38;5050493;28;20029;-73
2023/05/11 02:55:42;;;;;;;13.40;9.20;;;;;;;8.42;100.00;101519.44;5088277;27;20392;-72
2023/05/11 02:58:07;;;;;;;11.80;8.90;;;;;;;8.39;100.00;101457.78;5088957;28;20029;-71
2023/05/11 03:00:33;;;;;;;12.07;9.18;;;;;;;8.39;100.00;101414.72;5070544;28;20407;-72
2023/05/11 03:02:59;;;;;;;15.07;8.98;;;;;;;8.56;100.00;101459.53;5088965;28;20067;-72
2023/05/11 03:05:25;;;;;;;14.45;9.02;;;;;;;8.49;100.00;101431.63;5088596;28;20032;-72
2023/05/11 03:07:53;;;;;;;14.38;8.50;;;;;;;8.59;100.00;101428.31;5088178;28;20103;-72
2023/05/11 03:10:18;;;;;;;14.10;8.50;;;;;;;8.21;100.00;101354.66;5070376;28;20032;-73
2023/05/11 03:12:45;;;;;;;11.52;8.60;;;;;;;8.68;100.00;101408.88;5071203;28;20106;-72
2023/05/11 03:15:11;;;;;;;13.52;8.18;;;;;;;8.40;100.00;101342.91;5070500;28;20085;-73
2023/05/11 03:17:38;;;;;;;9.82;8.57;;;;;;;8.74;100.00;101378.50;5070555;28;20054;-74
2023/05/11 03:20:05;;;;;;;11.30;8.80;;;;;;;8.54;100.00;101331.97;5070047;28;20047;-72
2023/05/11 03:22:31;;;;;;;13.77;9.43;;;;;;;8.76;100.00;101330.31;5087631;28;20028;-72
2023/05/11 03:24:56;;;;;;;11.82;8.85;;;;;;;8.86;100.00;101349.75;5070711;28;20025;-73
2023/05/11 03:27:24;;;;;;;15.88;8.90;;;;;;;9.17;100.00;101389.50;5069770;28;20029;-71
2023/05/11 03:29:51;;;;;;;12.77;8.18;;;;;;;8.83;100.00;101344.69;5070246;28;20032;-72
2023/05/11 03:32:16;;;;;;;14.63;9.20;;;;;;;9.02;100.00;101315.97;5079945;28;20055;-72
2023/05/11 03:34:42;;;;;;;13.40;7.72;;;;;;;9.11;100.00;101304.97;5080834;28;20474;-72
2023/05/11 03:37:11;;;;;;;12.63;7.85;;;;;;;9.04;100.00;101296.50;5077558;28;20032;-67
2023/05/11 03:39:38;;;;;;;10.65;7.50;;;;;;;9.05;100.00;101280.44;5049366;28;20060;-70
2023/05/11 03:42:04;;;;;;;14.18;11.43;;;;;;;9.32;100.00;101384.47;5049494;28;20040;-70
2023/05/11 03:44:34;;;;;;;12.13;7.43;;;;;;;8.97;100.00;101334.56;5066290;28;20036;-69
2023/05/11 03:47:02;;;;;;;13.48;7.78;;;;;;;9.30;100.00;101340.47;5067111;28;20098;-69
2023/05/11 03:49:29;;;;;;;11.70;8.45;;;;;;;9.63;100.00;101399.69;5079951;28;20029;-69
2023/05/11 03:51:55;;;;;;;10.38;7.80;;;;;;;9.53;100.00;101379.38;5086100;28;20140;-68
2023/05/11 03:54:27;;;;;;;8.38;7.25;;;;;;;9.49;100.00;101328.59;5086003;28;20060;-69
2023/05/11 03:56:53;;;;;;;11.60;6.88;;;;;;;9.97;100.00;101371.66;5087497;28;20020;-71
2023/05/11 03:59:18;;;;;;;9.77;7.45;;;;;;;9.75;100.00;101344.63;5087261;28;20549;-72
2023/05/11 04:01:44;;;;;;;11.60;8.02;;;;;;;9.43;100.00;101286.31;5087137;28;20028;-72
2023/05/11 04:04:10;;;;;;;12.52;7.55;;;;;;;9.79;100.00;101320.91;5086829;28;20039;-70
2023/05/11 04:06:36;;;;;;;12.52;8.13;;;;;;;9.91;100.00;101300.53;5076384;28;20033;-71
2023/05/11 04:09:01;;;;;;;10.32;7.55;;;;;;;10.14;100.00;101320.81;5069295;28;20059;-72
2023/05/11 04:11:29;;;;;;;11.02;6.80;;;;;;;10.14;100.00;101286.06;5072622;28;20036;-72
2023/05/11 04:13:54;;;;;;;21.52;7.20;;;;;;;10.27;100.00;101248.72;5071836;28;20037;-71
2023/05/11 04:16:20;;;;;;;11.95;7.15;;;;;;;9.97;100.00;101244.63;5073930;28;20039;-72
2023/05/11 04:18:45;;;;;;;10.75;8.02;;;;;;;10.09;100.00;101241.19;5072935;28;20033;-72
2023/05/11 04:21:10;;;;;;;13.48;8.23;;;;;;;10.36;100.00;101280.00;5056465;28;20111;-73
2023/05/11 04:23:37;;;;;;;11.05;7.10;;;;;;;9.90;100.00;101216.72;5055442;28;20174;-74
2023/05/11 04:26:02;;;;;;;11.00;7.22;;;;;;;10.44;100.00;101263.00;5073793;28;20028;-74
2023/05/11 04:28:28;;;;;;;11.43;7.47;;;;;;;10.08;100.00;101206.47;5054807;28;20071;-74
2023/05/11 04:30:55;;;;;;;11.68;7.18;;;;;;;9.94;100.00;101190.47;5073209;28;20035;-76
2023/05/11 04:33:21;;;;;;;10.55;7.47;;;;;;;9.94;100.00;101185.38;5055310;28;20545;-73
2023/05/11 04:35:51;;;;;;;16.30;7.85;;;;;;;10.06;100.00;101183.59;5055855;28;20032;-74
2023/05/11 04:38:18;;;;;;;7.60;5.80;;;;;;;10.08;100.00;101225.09;5055893;28;20024;-74
2023/05/11 04:40:43;;;;;;;11.20;6.38;;;;;;;10.32;100.00;101219.03;5073299;28;20040;-71
2023/05/11 04:43:08;;;;;;;10.68;6.30;;;;;;;11.05;100.00;101229.47;5072723;28;20028;-73
2023/05/11 04:45:34;;;;;;;12.88;6.47;;;;;;;10.70;100.00;101176.34;5072892;28;20035;-74
2023/05/11 04:47:59;;;;;;;12.40;6.53;;;;;;;10.77;100.00;101221.22;5071980;28;20034;-74
2023/05/11 04:50:25;;;;;;;10.50;5.80;;;;;;;10.81;100.00;101196.59;5073307;28;20037;-74
2023/05/11 04:52:50;;;;;;;7.50;5.80;;;;;;;10.65;100.00;101183.19;5054022;28;20025;-73
2023/05/11 04:55:16;;;;;;;10.65;5.45;;;;;;;10.99;100.00;101179.44;5073255;28;20590;-74
2023/05/11 04:57:41;;;;;;;11.90;5.80;;;;;;;10.42;100.00;101124.91;5053803;28;20407;-74
2023/05/11 05:00:08;;;;;;;11.75;6.57;;;;;;;10.79;100.00;101155.94;5073332;28;20029;-74
2023/05/11 05:02:33;;;;;;;9.80;5.95;;;;;;;11.29;100.00;101178.25;5071721;28;20093;-74
2023/05/11 05:04:59;;;;;;;9.57;6.13;;;;;;;11.26;100.00;101163.88;5072778;28;20028;-73
2023/05/11 05:07:25;;;;;;;9.27;5.78;;;;;;;10.88;100.00;101139.72;5072503;28;20020;-74
2023/05/11 05:09:50;;;;;;;10.50;5.65;;;;;;;10.89;100.00;101093.91;5054575;28;20063;-74
2023/05/11 05:12:16;;;;;;;9.80;5.47;;;;;;;11.35;100.00;101145.09;5054253;28;20090;-74
2023/05/11 05:14:41;;;;;;;11.15;5.68;;;;;;;11.19;100.00;101130.91;5071807;28;20078;-74
2023/05/11 05:17:07;;;;;;;11.15;5.85;;;;;;;11.43;100.00;101099.19;5071062;28;20479;-74
2023/05/11 05:19:32;;;;;;;12.65;5.90;;;;;;;11.53;100.00;101124.50;5053813;28;20032;-74
2023/05/11 05:21:58;;;;;;;9.05;5.40;;;;;;;11.53;100.00;101126.22;5071068;28;20024;-74
2023/05/11 05:24:23;;;;;;;7.45;4.93;;;;;;;10.94;100.00;101055.69;5072335;28;20043;-74
2023/05/11 05:26:49;;;;;;;6.70;5.18;;;;;;;11.71;100.00;101116.63;5072825;28;20024;-74
2023/05/11 05:29:14;;;;;;;9.85;5.13;;;;;;;12.11;100.00;101115.19;5054135;28;20059;-74
2023/05/11 05:31:39;;;;;;;7.35;4.60;;;;;;;11.72;100.00;101084.38;5071841;28;20032;-74
2023/05/11 05:34:05;;;;;;;7.03;4.30;;;;;;;11.73;100.00;101047.81;5054093;28;20032;-74
2023/05/11 05:36:31;;;;;;;11.52;4.53;;;;;;;11.97;100.00;101089.06;5072104;28;20482;-74
2023/05/11 05:38:56;;;;;;;7.22;4.20;;;;;;;12.11;100.00;101076.94;5072229;28;20086;-74
2023/05/11 05:41:22;;;;;;;4.30;3.60;;;;;;;11.59;100.00;100999.63;5054812;28;20032;-74
2023/05/11 05:43:48;;;;;;;8.13;3.85;;;;;;;12.21;100.00;101082.72;5053972;28;20025;-74
2023/05/11 05:46:14;;;;;;;8.02;3.63;;;;;;;12.07;100.00;100995.44;5072174;28;20032;-74
2023/05/11 05:48:40;;;;;;;10.20;3.63;;;;;;;12.12;100.00;101009.78;5072226;28;20032;-74
2023/05/11 05:51:05;;;;;;;5.88;3.58;;;;;;;12.60;100.00;101002.06;5054061;28;20033;-73
2023/05/11 05:53:31;;;;;;;6.10;3.35;;;;;;;12.66;100.00;101017.28;5072089;28;20123;-73
2023/05/11 05:55:56;;;;;;;6.78;3.50;;;;;;;13.55;100.00;101017.91;5054383;28;20039;-74
2023/05/11 05:58:22;;;;;;;4.60;3.40;;;;;;;12.93;100.00;101016.72;5071990;28;20111;-75
2023/05/11 06:00:48;;;;;;;4.75;2.70;;;;;;;12.20;100.00;100949.31;5070965;28;20044;-73
2023/05/11 06:03:13;;;;;;;4.32;3.05;;;;;;;12.42;100.00;100915.75;5054043;28;20033;-74
2023/05/11 06:05:39;;;;;;;6.03;3.38;;;;;;;12.64;100.00;100942.47;5071275;28;20032;-73
2023/05/11 06:08:04;;;;;;;6.90;4.00;;;;;;;12.74;100.00;101005.19;5054430;28;20040;-74
2023/05/11 06:10:30;;;;;;;5.45;3.03;;;;;;;13.20;100.00;101000.84;5053051;28;20028;-74
2023/05/11 06:12:55;;;;;;;6.22;3.45;;;;;;;12.51;100.00;100984.41;5071436;28;20024;-74
2023/05/11 06:15:21;;;;;;;6.15;3.10;;;;;;;13.95;100.00;100987.94;5071344;28;20416;-73
2023/05/11 06:17:47;;;;;;;6.88;3.42;;;;;;;13.77;100.00;101001.19;5053990;28;20071;-73
2023/05/11 06:20:13;;;;;;;8.13;3.33;;;;;;;13.07;100.00;101016.47;5053609;28;20115;-73
2023/05/11 06:22:38;;;;;;;6.15;3.03;;;;;;;13.38;100.00;101009.81;5053557;28;20040;-74
2023/05/11 06:25:04;;;;;;;5.30;2.97;;;;;;;13.26;100.00;100984.53;5070800;28;20502;-74
2023/05/11 06:27:30;;;;;;;7.65;3.20;;;;;;;13.83;100.00;101016.38;5071828;28;20115;-74
2023/05/11 06:29:55;;;;;;;5.03;3.00;;;;;;;13.14;100.00;101018.84;5070686;28;20468;-72
2023/05/11 06:32:21;;;;;;;7.53;3.17;;;;;;;12.45;100.00;100915.66;5053235;28;20415;-73
2023/05/11 06:34:46;;;;;;;5.63;3.60;;;;;;;13.12;100.00;100945.69;5071494;28;20402;-73
2023/05/11 06:37:19;;;;;;;6.13;3.28;;;;;;;13.22;100.00;100999.09;5071102;28;20032;-73
2023/05/11 06:39:44;;;;;;;5.00;3.53;;;;;;;13.21;100.00;100999.94;5071241;28;20037;-73
2023/05/11 06:42:10;;;;;;;4.55;3.28;;;;;;;12.98;100.00;101008.09;5053229;28;20090;-73
2023/05/11 06:44:35;;;;;;;5.22;3.40;;;;;;;12.98;100.00;100999.59;5070199;28;20079;-73
2023/05/11 06:47:01;;;;;;;6.85;3.15;;;;;;;13.30;100.00;100946.13;5071451;28;20031;-73
2023/05/11 06:49:26;;;;;;;4.63;2.80;;;;;;;13.69;100.00;100993.72;5059589;28;20023;-73
2023/05/11 06:51:51;;;;;;;3.70;2.90;;;;;;;13.74;100.00;100997.00;5032564;28;20032;-73
2023/05/11 06:54:17;;;;;;;6.88;3.42;;;;;;;14.25;100.00;100965.84;5050772;28;20091;-72
2023/05/11 06:56:43;;;;;;;4.50;2.85;;;;;;;14.48;100.00;101015.53;5051179;28;20068;-73
2023/05/11 06:59:08;;;;;;;4.18;3.10;;;;;;;14.73;100.00;101008.88;5033069;28;20033;-72
2023/05/11 07:01:34;;;;;;;5.43;2.90;;;;;;;14.59;100.00;101021.22;5050684;28;20379;-73
2023/05/11 07:03:59;;;;;;;5.10;3.05;;;;;;;14.87;100.00;101028.13;5050884;28;20064;-73
2023/05/11 07:06:25;;;;;;;4.47;2.30;;;;;;;14.35;100.00;100941.72;5032798;28;20070;-73
2023/05/11 07:08:50;;;;;;;6.85;2.53;;;;;;;16.07;100.00;101054.28;5033109;28;20036;-73
2023/05/11 07:11:16;;;;;;;4.20;1.98;;;;;;;14.66;100.00;101044.91;5032908;28;20033;-73
2023/05/11 07:13:41;;;;;;;3.65;2.35;;;;;;;13.90;100.00;101031.53;5050931;28;20030;-74
2023/05/11 07:16:07;;;;;;;5.25;2.85;;;;;;;14.17;100.00;101031.72;5032936;28;20033;-74
2023/05/11 07:18:33;;;;;;;5.13;2.30;;;;;;;13.77;100.00;100989.25;5051055;28;20036;-73
2023/05/11 07:20:58;;;;;;;4.47;2.20;;;;;;;14.27;100.00;101038.28;5051229;28;20025;-73
2023/05/11 07:23:23;;;;;;;5.97;2.50;;;;;;;15.19;100.00;101069.84;5050569;28;20549;-73
2023/05/11 07:25:50;;;;;;;3.80;2.20;;;;;;;14.75;100.00;101076.25;5050767;28;20031;-73
2023/05/11 07:28:15;;;;;;;6.20;2.30;;;;;;;13.73;100.00;101013.22;5050948;28;20102;-74
2023/05/11 07:30:41;;;;;;;3.85;2.20;;;;;;;14.96;100.00;101053.47;5050231;28;20037;-73
2023/05/11 07:33:06;;;;;;;5.68;2.25;;;;;;;14.13;100.00;101038.63;5050635;28;20082;-74
2023/05/11 07:35:32;;;;;;;4.20;2.28;;;;;;;14.11;100.00;101026.75;5051124;28;20114;-74
2023/05/11 07:37:57;;;;;;;4.07;2.45;;;;;;;14.00;100.00;101036.44;5033007;28;20384;-74
2023/05/11 07:40:23;;;;;;;3.10;2.05;;;;;;;14.44;100.00;101110.38;5050883;28;20029;-74
2023/05/11 07:42:49;;;;;;;3.55;2.10;;;;;;;14.16;100.00;101053.91;5054745;28;20029;-74
2023/05/11 07:45:14;;;;;;;4.40;2.40;;;;;;;15.58;100.00;101137.06;5036212;28;20143;-74
2023/05/11 07:47:45;;;;;;;4.15;2.13;;;;;;;15.86;100.00;101152.47;5036658;28;20025;-73
2023/05/11 07:50:10;;;;;;;3.38;2.00;;;;;;;16.02;100.00;101133.13;5054475;28;20028;-74
2023/05/11 07:52:35;;;;;;;8.18;2.97;;;;;;;14.96;100.00;101123.44;5036611;28;20032;-73
2023/05/11 07:55:01;;;;;;;8.85;2.17;;;;;;;14.92;100.00;101193.56;5035976;28;20056;-73
2023/05/11 07:57:26;;;;;;;6.32;2.30;;;;;;;14.56;100.00;101192.78;5036042;28;20029;-73
2023/05/11 07:59:52;;;;;;;5.10;2.20;;;;;;;14.40;100.00;101171.00;5053377;28;20136;-73
2023/05/11 08:02:17;;;;;;;4.05;2.15;;;;;;;14.64;100.00;101215.63;5035781;28;20128;-74
2023/05/11 08:04:43;;;;;;;4.85;2.00;;;;;;;14.23;100.00;101238.75;5054262;28;20437;-76
2023/05/11 08:07:09;;;;;;;6.75;3.28;;;;;;;14.78;100.00;101296.34;5036115;28;20036;-74
2023/05/11 08:09:35;;;;;;;7.72;3.50;;;;;;;15.57;100.00;101350.72;5036097;28;20044;-74
2023/05/11 08:12:01;;;;;;;5.85;2.00;;;;;;;15.66;100.00;101367.59;5036255;28;20053;-74
2023/05/11 08:14:27;;;;;;;6.18;2.08;;;;;;;15.10;100.00;101353.63;5053466;28;20072;-75
2023/05/11 08:16:52;;;;;;;3.78;1.90;;;;;;;16.00;100.00;101440.22;5054136;28;20535;-74
2023/05/11 08:19:18;;;;;;;3.85;1.85;;;;;;;15.25;100.00;101415.56;5053978;28;20033;-75
2023/05/11 08:21:45;;;;;;;5.78;2.80;;;;;;;16.28;100.00;101503.56;5053472;28;20036;-74
2023/05/11 08:24:10;;;;;;;5.32;2.28;;;;;;;16.53;100.00;101500.38;5036136;28;20037;-74
2023/05/11 08:26:36;;;;;;;3.40;1.98;;;;;;;16.86;100.00;101582.47;5035290;28;20022;-73
2023/05/11 08:29:03;;;;;;;5.78;2.20;;;;;;;16.55;100.00;101563.66;5035329;28;20068;-73
2023/05/11 08:31:28;;;;;;;4.88;2.25;;;;;;;16.51;100.00;101605.69;5035765;28;20049;-73
2023/05/11 08:33:54;;;;;;;5.93;2.17;;;;;;;15.27;100.00;101620.56;5035695;28;20033;-75
2023/05/11 08:36:19;;;;;;;8.07;2.97;;;;;;;15.56;100.00;101631.94;5035963;28;20028;-74
2023/05/11 08:38:48;;;;;;;4.97;2.28;;;;;;;15.88;100.00;101710.72;5053625;28;20029;-75
2023/05/11 08:41:13;;;;;;;5.43;2.58;;;;;;;16.29;100.00;101766.25;5053265;28;20089;-73
2023/05/11 08:43:40;;;;;;;4.75;2.30;;;;;;;15.38;100.00;101763.00;5052780;28;20439;-74
2023/05/11 08:46:08;;;;;;;4.40;2.60;;;;;;;15.60;100.00;101796.81;5053115;28;20541;-75
2023/05/11 08:48:33;;;;;;;5.10;2.25;;;;;;;15.90;100.00;101946.72;5054229;28;20502;-74
2023/05/11 08:51:00;;;;;;;4.60;2.08;;;;;;;16.23;100.00;102051.31;5035426;28;20032;-74
2023/05/11 08:53:27;;;;;;;7.65;2.17;;;;;;;17.67;100.00;102494.38;5052710;28;20021;-74
2023/05/11 08:55:56;;;;;;;5.15;2.10;;;;;;;15.33;100.00;102361.22;5035423;28;20056;-74
2023/05/11 08:58:22;;;;;;;2.95;2.00;;;;;;;15.49;100.00;102444.81;5034835;28;20057;-75
2023/05/11 09:00:49;;;;;;;3.78;2.10;;;;;;;15.32;100.00;102375.72;5051976;28;20147;-74
2023/05/11 09:03:18;;;;;;;6.38;2.30;;;;;;;16.77;100.00;102492.25;5034991;28;20119;-74
2023/05/11 09:05:47;;;;;;;4.50;1.77;;;;;;;16.41;100.00;102490.09;5053040;28;20036;-74
2023/05/11 09:08:16;;;;;;;5.15;2.00;;;;;;;16.69;100.00;102499.22;5034587;28;20131;-74
2023/05/11 09:10:43;;;;;;;3.95;2.47;;;;;;;15.78;100.00;102401.81;5052494;28;20068;-74
2023/05/11 09:13:09;;;;;;;4.82;2.55;;;;;;;16.12;100.00;102428.81;4704934;28;9999667;-73
2023/05/11 09:15:35;;;;;;;3.40;1.90;;;;;;;16.79;100.00;102485.38;5069191;28;20037;-74
2023/05/11 09:18:01;;;;;;;6.50;2.30;;;;;;;17.84;100.00;102498.34;5060943;28;20040;-74
2023/05/11 09:20:30;;;;;;;4.55;2.05;;;;;;;17.13;100.00;102445.44;5050324;28;20123;-75
2023/05/11 09:22:57;;;;;;;4.00;2.15;;;;;;;16.79;100.00;102400.59;5070009;28;20025;-74
2023/05/11 09:25:23;;;;;;;6.82;2.17;;;;;;;15.98;100.00;102353.72;5052022;28;20649;-74
2023/05/11 09:27:49;;;;;;;5.72;2.17;;;;;;;16.03;100.00;102412.66;5069762;28;20494;-74
2023/05/11 09:30:17;;;;;;;6.13;1.80;;;;;;;15.73;100.00;102407.88;5070699;28;20027;-74
2023/05/11 09:32:47;;;;;;;5.85;2.00;;;;;;;16.15;100.00;102431.34;5070278;28;20107;-74
2023/05/11 09:35:24;;;;;;;3.45;2.30;;;;;;;16.37;100.00;102445.63;5052595;28;20530;-74
2023/05/11 09:38:17;;;;;;;3.75;2.13;;;;;;;16.83;100.00;102451.06;5051220;28;20032;-70
2023/05/11 09:40:51;;;;;;;2.80;2.10;;;;;;;17.44;100.00;102430.41;5064379;28;20190;-71
2023/05/11 09:43:18;;;;;;;5.43;2.00;;;;;;;18.67;100.00;102444.38;5071977;28;20115;-73
2023/05/11 09:45:46;;;;;;;5.03;2.20;;;;;;;18.35;100.00;102361.72;5071273;28;20090;-74
2023/05/11 09:48:20;;;;;;;4.13;1.90;;;;;;;17.57;100.00;102274.13;5054037;28;20452;-74
2023/05/11 09:50:50;;;;;;;6.78;2.38;;;;;;;17.13;100.00;102203.78;5071930;28;20036;-74
2023/05/11 09:53:16;;;;;;;4.43;2.03;;;;;;;16.35;100.00;102146.94;5066193;28;20040;-74
2023/05/11 09:55:52;;;;;;;6.25;2.13;;;;;;;17.37;100.00;102225.63;5070909;28;20129;-73
2023/05/11 09:58:18;;;;;;;5.45;2.00;;;;;;;17.02;100.00;102166.31;5071717;28;20186;-74
2023/05/11 10:00:50;;;;;;;5.63;2.00;;;;;;;16.42;100.00;102138.25;5071282;28;20123;-74
2023/05/11 10:03:15;;;;;;;3.05;1.65;;;;;;;16.78;100.00;102102.53;5053015;28;20044;-74
2023/05/11 10:05:55;;;;;;;3.78;2.20;;;;;;;17.85;100.00;102113.09;5071790;28;20025;-74
2023/05/11 10:08:31;;;;;;;4.13;2.17;;;;;;;18.24;100.00;102099.25;5071661;28;20028;-74
2023/05/11 10:10:57;;;;;;;5.43;2.22;;;;;;;18.15;100.00;102038.53;5054326;28;20028;-76
2023/05/11 10:13:26;;;;;;;8.00;2.40;;;;;;;17.69;100.00;101927.34;5053943;28;20070;-74
2023/05/11 10:15:52;;;;;;;5.55;2.17;;;;;;;17.40;100.00;101821.75;5071260;28;20123;-75
2023/05/11 10:18:18;;;;;;;4.40;2.40;;;;;;;19.30;100.00;101862.41;5071307;28;20036;-74
2023/05/11 10:20:43;;;;;;;5.32;1.70;;;;;;;16.65;100.00;101602.75;5071616;28;20031;-76
2023/05/11 10:23:10;;;;;;;5.13;1.80;;;;;;;17.38;100.00;100963.84;5053814;28;20570;-75
2023/05/11 10:25:37;;;;;;;4.82;1.90;;;;;;;19.10;100.00;101016.44;5053600;28;20039;-75
2023/05/11 10:28:03;;;;;;;4.03;1.50;;;;;;;17.77;100.00;101011.97;5053416;28;20028;-74
2023/05/11 10:30:29;;;;;;;6.40;2.30;;;;;;;17.75;100.00;101074.69;5053900;28;20081;-74
2023/05/11 10:32:56;;;;;;;4.32;1.50;;;;;;;17.58;100.00;101169.69;5053725;28;20124;-76
2023/05/11 10:35:22;;;;;;;4.82;2.08;;;;;;;18.03;100.00;101498.22;5053917;28;20025;-74
2023/05/11 10:37:49;;;;;;;6.18;2.20;;;;;;;19.07;100.00;102176.09;5071459;28;20028;-75
2023/05/11 10:40:14;;;;;;;2.85;2.00;;;;;;;17.56;100.00;102708.09;5053361;28;20069;-75
2023/05/11 10:42:42;;;;;;;3.58;1.90;;;;;;;16.77;100.00;102568.50;5053867;28;20088;-74
2023/05/11 10:45:30;;;;;;;3.20;1.90;;;;;;;17.63;100.00;102604.19;5071280;28;20042;-74
2023/05/11 10:48:27;;;;;;;3.22;1.73;;;;;;;16.44;100.00;102497.75;5053760;28;20039;-75
2023/05/11 10:50:52;;;;;;;3.67;2.10;;;;;;;16.75;100.00;102563.38;5067242;28;20040;-74
2023/05/11 10:53:51;;;;;;;3.47;2.00;;;;;;;17.08;100.00;102574.94;5071396;28;20029;-75
2023/05/11 10:56:29;;;;;;;4.40;1.83;;;;;;;18.67;100.00;102599.88;5071305;28;20029;-75
2023/05/11 10:59:21;;;;;;;6.65;1.92;;;;;;;17.13;100.00;102488.34;5071129;28;20115;-75
2023/05/11 11:01:51;;;;;;;3.15;1.90;;;;;;;17.45;100.00;102539.28;5071473;28;20028;-74
2023/05/11 11:04:16;;;;;;;4.55;1.80;;;;;;;16.76;100.00;102525.66;5053299;28;20051;-75
2023/05/11 11:06:42;;;;;;;3.80;1.70;;;;;;;17.51;100.00;102568.34;5071152;28;20020;-74
2023/05/11 11:09:15;;;;;;;2.78;1.80;;;;;;;17.67;100.00;102587.03;5070867;28;20032;-74
2023/05/11 11:11:45;;;;;;;3.80;1.83;;;;;;;16.96;100.00;102588.81;5071008;28;20124;-74
2023/05/11 11:14:12;;;;;;;2.25;1.92;;;;;;;16.60;100.00;102584.09;5053155;28;20048;-74
2023/05/11 11:16:38;;;;;;;5.35;2.20;;;;;;;16.65;100.00;102623.44;5055485;28;20529;-74
2023/05/11 11:19:31;;;;;;;2.45;1.77;;;;;;;17.06;100.00;102720.66;5057324;28;20086;-74